N18NR KSMO-KDAG
Flight info
| Callsign | N18NR |
|---|---|
| Flight time | N/A |
| Altitude | 13000 |
| Route | SMO V107 STABO V264 POM V210 BASAL |
| Aircraft | C208/L-SDFGR/C |
Departure
| Time | 2026-04-30 22:52 |
|---|---|
| Airport | Santa Monica Municipal Airport (KSMO) |
Arrival
| Time | N/A |
|---|---|
| Airport | Barstow Daggett Airport (KDAG) |
| Time | Latitude | Longitude | Altitude | Speed | Heading |
|---|---|---|---|---|---|
| 2026-04-30 22:30 | 34.01643 | -118.45247 | 157 ft | 0 kts | 130° |
| 2026-04-30 22:46 | 34.01642 | -118.45246 | 157 ft | 0 kts | 129° |
| 2026-04-30 22:47 | 34.01653 | -118.45159 | 158 ft | 8 kts | 46° |
| 2026-04-30 22:47 | 34.01772 | -118.45020 | 166 ft | 28 kts | 46° |
| 2026-04-30 22:48 | 34.02097 | -118.44620 | 188 ft | 15 kts | 74° |
| 2026-04-30 22:49 | 34.02081 | -118.44584 | 197 ft | 0 kts | 147° |
| 2026-04-30 22:51 | 34.02041 | -118.44591 | 187 ft | 19 kts | 221° |
| 2026-04-30 22:51 | 34.01230 | -118.45558 | 492 ft | 115 kts | 227° |
| 2026-04-30 22:52 | 34.00664 | -118.46239 | 910 ft | 106 kts | 232° |
| 2026-04-30 22:52 | 34.00208 | -118.47799 | 1698 ft | 117 kts | 261° |
| 2026-04-30 22:53 | 33.99892 | -118.49863 | 2081 ft | 134 kts | 261° |
| 2026-04-30 22:53 | 33.99539 | -118.52240 | 2487 ft | 150 kts | 261° |
| 2026-04-30 22:53 | 33.99354 | -118.53483 | 2689 ft | 152 kts | 262° |
| 2026-04-30 22:54 | 33.98979 | -118.56002 | 3095 ft | 153 kts | 261° |
| 2026-04-30 22:55 | 33.98416 | -118.59773 | 3686 ft | 153 kts | 261° |
| 2026-04-30 22:55 | 33.98040 | -118.62301 | 4089 ft | 153 kts | 261° |
| 2026-04-30 22:56 | 33.97663 | -118.64838 | 4487 ft | 154 kts | 261° |
| 2026-04-30 22:56 | 33.97922 | -118.68455 | 5113 ft | 158 kts | 317° |
| 2026-04-30 22:57 | 33.99732 | -118.70005 | 5515 ft | 160 kts | 321° |
| 2026-04-30 22:57 | 34.01559 | -118.71528 | 5914 ft | 161 kts | 321° |
| 2026-04-30 22:58 | 34.03594 | -118.72517 | 6333 ft | 174 kts | 8° |
| 2026-04-30 22:59 | 34.04756 | -118.68703 | 6983 ft | 183 kts | 108° |
| 2026-04-30 22:59 | 34.03926 | -118.64099 | 7574 ft | 190 kts | 102° |